Fairview Valley, Nevada Weather observations

Data are for observation ending at time listed.
 Day   Time    Ave.   Ave.  Ave.  Vector   Max.   Stn.    Total    Solar   Ave.   Ave.    #1       #2
  of    of     Air    Rel.  Wind   Wind    Wind   Baro.  Precip.   Rad.    Soil   Vis.   Cloud   Cloud
Year   Day     Temp.  Hum.  Speed  Dir.    Gust   Pres.                    Temp.          Ceil    Ceil
2016   (PST)    F      %     mph   deg.    mph     mb.     in.     W/m2     F     (km)   k ft.   k ft.
------------------------------------------------------------------------------------------------------
  36    0:00  999.0   999  999.0   999    999.0    999    999.00     999   999.0   999.0  999.0  999.0
  36    0:10  999.0   999  999.0   999    999.0    999    999.00     999   999.0   999.0  999.0  999.0
  36    0:20  999.0   999  999.0   999    999.0    999    999.00     999   999.0   999.0  999.0  999.0
  36    0:30  999.0   999  999.0   999    999.0    999    999.00     999   999.0   999.0  999.0  999.0
  36    0:40  999.0   999  999.0   999    999.0    999    999.00     999   999.0   999.0  999.0  999.0
  36    0:50  999.0   999  999.0   999    999.0    999    999.00     999   999.0   999.0  999.0  999.0
  36    1:00  999.0   999  999.0   999    999.0    999    999.00     999   999.0   999.0  999.0  999.0
  36    1:10  999.0   999  999.0   999    999.0    999    999.00     999   999.0   999.0  999.0  999.0
  36    1:20  999.0   999  999.0   999    999.0    999    999.00     999   999.0   999.0  999.0  999.0
  36    1:30  999.0   999  999.0   999    999.0    999    999.00     999   999.0   999.0  999.0  999.0
  36    1:40  999.0   999  999.0   999    999.0    999    999.00     999   999.0   999.0  999.0  999.0
  36    1:50  999.0   999  999.0   999    999.0    999    999.00     999   999.0   999.0  999.0  999.0
  36    2:00  999.0   999  999.0   999    999.0    999    999.00     999   999.0   999.0  999.0  999.0
  36    2:10  999.0   999  999.0   999    999.0    999    999.00     999   999.0   999.0  999.0  999.0
  36    2:20  999.0   999  999.0   999    999.0    999    999.00     999   999.0   999.0  999.0  999.0
  36    2:30  999.0   999  999.0   999    999.0    999    999.00     999   999.0   999.0  999.0  999.0
  36    2:40  999.0   999  999.0   999    999.0    999    999.00     999   999.0   999.0  999.0  999.0
  36    2:50  999.0   999  999.0   999    999.0    999    999.00     999   999.0   999.0  999.0  999.0
  36    3:00  999.0   999  999.0   999    999.0    999    999.00     999   999.0   999.0  999.0  999.0
  36    3:10  999.0   999  999.0   999    999.0    999    999.00     999   999.0   999.0  999.0  999.0
  36    3:20  999.0   999  999.0   999    999.0    999    999.00     999   999.0   999.0  999.0  999.0
  36    3:30  999.0   999  999.0   999    999.0    999    999.00     999   999.0   999.0  999.0  999.0
  36    3:40  999.0   999  999.0   999    999.0    999    999.00     999   999.0   999.0  999.0  999.0
  36    3:50  999.0   999  999.0   999    999.0    999    999.00     999   999.0   999.0  999.0  999.0
  36    4:00  999.0   999  999.0   999    999.0    999    999.00     999   999.0   999.0  999.0  999.0
  36    4:10  999.0   999  999.0   999    999.0    999    999.00     999   999.0   999.0  999.0  999.0
  36    4:20  999.0   999  999.0   999    999.0    999    999.00     999   999.0   999.0  999.0  999.0
  36    4:30  999.0   999  999.0   999    999.0    999    999.00     999   999.0   999.0  999.0  999.0
  36    4:40  999.0   999  999.0   999    999.0    999    999.00     999   999.0   999.0  999.0  999.0
  36    4:50  999.0   999  999.0   999    999.0    999    999.00     999   999.0   999.0  999.0  999.0
  36    5:00  999.0   999  999.0   999    999.0    999    999.00     999   999.0   999.0  999.0  999.0
  36    5:10  999.0   999  999.0   999    999.0    999    999.00     999   999.0   999.0  999.0  999.0
  36    5:20  999.0   999  999.0   999    999.0    999    999.00     999   999.0   999.0  999.0  999.0
  36    5:30  999.0   999  999.0   999    999.0    999    999.00     999   999.0   999.0  999.0  999.0
  36    5:40  999.0   999  999.0   999    999.0    999    999.00     999   999.0   999.0  999.0  999.0
  36    5:50  999.0   999  999.0   999    999.0    999    999.00     999   999.0   999.0  999.0  999.0
  36    6:00  999.0   999  999.0   999    999.0    999    999.00     999   999.0   999.0  999.0  999.0
  36    6:10  999.0   999  999.0   999    999.0    999    999.00     999   999.0   999.0  999.0  999.0
  36    6:20  999.0   999  999.0   999    999.0    999    999.00     999   999.0   999.0  999.0  999.0
  36    6:30  999.0   999  999.0   999    999.0    999    999.00     999   999.0   999.0  999.0  999.0
  36    6:40  999.0   999  999.0   999    999.0    999    999.00     999   999.0   999.0  999.0  999.0
  36    6:50   22.2    94    2.5   326      3.8    886     0.00       1    32.9   999.0    0.0  999.0
  36    7:00   22.5    94    1.6   333      3.2    886     0.00       4    32.9   999.0    0.0  999.0
  36    7:10   23.0    94    1.4   338      2.6    886     0.00       8    32.9   999.0    0.0  999.0
  36    7:20   22.7    93    0.2   338      1.1    887     0.00      19    32.9   999.0    0.0  999.0
  36    7:30   23.1    92    0.3    16      1.7    886     0.00      28    32.8   999.0    0.0  999.0
  36    7:40  999.0   999  999.0   999    999.0    999    999.00     999   999.0   999.0  999.0  999.0
  36    7:50   25.5    90    2.3   190      4.2    887     0.00      62    32.8   999.0    0.0  999.0
  36    8:00   25.2    87    2.9   183      4.5    887     0.00      83    32.8   999.0    0.0  999.0
  36    8:10   25.9    88    1.9   185      3.0    887     0.00     110    32.7   999.0    0.0  999.0
  36    8:20   27.4    87    2.0   181      3.7    887     0.00     144    32.8   999.0    0.0  999.0
  36    8:30   28.1    87    2.2   190      3.7    887     0.00     182    32.8   999.0    0.0  999.0
  36    8:40   29.0    84    2.1   210      2.9    887     0.00     218    32.8   999.0    0.0  999.0
  36    8:50   29.3    84    3.0   207      4.6    887     0.00     255    32.8   999.0    0.0  999.0
  36    9:00   29.0    85    3.9   200      5.4    887     0.00     283    32.7   999.0    0.0  999.0
  36    9:10   29.4    84    3.2   197      4.6    887     0.00     308    32.7   999.0    0.0  999.0
  36    9:20   30.8    81    1.2   191      2.8    887     0.00     334    32.7   999.0    0.0  999.0
  36    9:30   33.0    76    0.5   129      1.7    887     0.00     352    32.8   999.0    0.0  999.0
  36    9:40   33.5    74    1.3   170      2.6    887     0.00     379    32.9   999.0    0.0  999.0
  36    9:50   34.4    72    0.6   154      2.0    887     0.00     421    32.9   999.0    0.0  999.0
  36   10:00   35.5    70    1.4   116      3.4    887     0.00     447    32.9   999.0    0.0  999.0
  36   10:10   35.5    69    3.1    52      5.6    887     0.00     466    32.9   999.0    0.0  999.0
  36   10:20   34.9    69    4.2    25      7.2    887     0.00     485    33.0   999.0    0.0  999.0
  36   10:30   34.8    68    5.2    39      9.6    887     0.00     503    33.0   999.0    0.0  999.0
  36   10:40   35.3    67    5.6    37      8.5    886     0.00     518    33.0   999.0    0.0  999.0
  36   10:50   35.9    66    6.0    30      8.6    886     0.00     529    33.0   999.0    0.0  999.0
  36   11:00   36.5    67    5.7    39      9.0    886     0.00     537    33.0   999.0    0.0  999.0
  36   11:10   36.7    67    5.6    32     10.3    886     0.00     548    33.0   999.0    0.0  999.0
  36   11:20   37.4    67    4.5    40      8.2    886     0.00     559    33.0   999.0    0.0  999.0
  36   11:30   38.6    64    3.0    38      6.5    886     0.00     563    33.0   999.0    0.0  999.0
  36   11:40   39.0    64    2.2    44      6.4    886     0.00     575    33.0   999.0    0.0  999.0
  36   11:50   39.7    61    4.5    42      8.4    886     0.00     575    33.0   999.0    0.0  999.0
  36   12:00   39.2    62    4.6    29      7.1    886     0.00     571    33.0   999.0    0.0  999.0
  36   12:10   39.2    60    6.1    17      9.3    886     0.00     577    33.0   999.0    0.0  999.0
  36   12:20   39.9    58    5.8    31      9.9    886     0.00     582    33.0   999.0    0.0  999.0
  36   12:30   40.1    57    6.1    26      9.6    885     0.00     583    33.0   999.0    0.0  999.0
  36   12:40   40.5    56    6.9    41      9.7    885     0.00     576    33.0   999.0    0.0  999.0
  36   12:50   40.4    54    7.9    34     11.7    885     0.00     570    33.0   999.0    0.0  999.0
  36   13:00   40.7    53    6.8    36     10.0    885     0.00     558    33.0   999.0    0.0  999.0
  36   13:10   41.0    53    5.9    34     10.5    885     0.00     564    33.0   999.0    0.0  999.0
  36   13:20   41.1    52    8.0    30     11.6    885     0.00     545    33.0   999.0    0.0  999.0
  36   13:30   41.6    52    7.9    28     10.7    885     0.00     532    33.0   999.0    0.0  999.0
  36   13:40   41.9    52    6.9    21     11.8    885     0.00     523    33.0   999.0    0.0  999.0
  36   13:50   41.9    52    7.7    12     11.5    885     0.00     508    33.0   999.0    0.0  999.0
  36   14:00   41.7    53    6.3   358     10.2    885     0.00     493    33.0   999.0    0.0  999.0
  36   14:10   42.4    52    3.8    16      6.7    885     0.00     471    33.1   999.0    0.0  999.0
  36   14:20   42.8    52    5.3    26      8.3    885     0.00     445    33.1   999.0    0.0  999.0
  36   14:30   42.7    54    5.8    32     10.5    885     0.00     419    33.1   999.0    0.0  999.0
  36   14:40   43.1    54    6.7    24      9.8    884     0.00     414    33.2   999.0    0.0  999.0
  36   14:50   43.0    54    6.8    40     10.4    884     0.00     394    33.2   999.0    0.0  999.0
  36   15:00   43.2    54    7.1    36     10.5    884     0.00     369    33.2   999.0    0.0  999.0
  36   15:10   42.9    54    7.8    22      9.9    884     0.00     323    33.3   999.0    0.0  999.0
  36   15:20   42.8    55    8.0    32     11.8    884     0.00     303    33.4   999.0    0.0  999.0
  36   15:30   42.7    55    8.8    34     11.8    884     0.00     262    33.5   999.0    0.0  999.0
  36   15:40   42.1    56    7.8    31     10.4    884     0.00     186    33.6   999.0    0.0  999.0
  36   15:50   41.8    58    8.7    27     11.2    884     0.00     184    33.8   999.0    0.0  999.0
  36   16:00   41.5    58    9.0    22     10.8    884     0.00     168    34.0   999.0    0.0  999.0
  36   16:10   40.9    60    9.3    24     11.8    884     0.00     122    34.1   999.0    0.0  999.0
  36   16:20   40.6    61    8.8    26     12.3    884     0.00     114    34.3   999.0    0.0  999.0
  36   16:30   40.3    60    9.3    28     11.8    884     0.00     117    34.5   999.0    0.0  999.0
  36   16:40   40.1    62    7.5    31     10.4    884     0.00      75    34.7   999.0    0.0  999.0
  36   16:50   39.3    63    7.7    28     10.2    884     0.00      47    34.8   999.0    0.0  999.0
  36   17:00   38.7    63    7.4    33     10.4    884     0.00      35    35.0   999.0    0.0  999.0
  36   17:10   38.0    63    6.6    30      9.2    884     0.00      18    35.1   999.0    0.0  999.0
  36   17:20   37.0    65    6.1    31      8.7    884     0.00       7    35.1   999.0    0.0  999.0
  36   17:30   36.0    67    6.7    33      8.8    884     0.00       1    35.2   999.0    0.0  999.0
  36   17:40   35.4    69    6.0    38      7.7    884     0.00       0    35.2   999.0    0.0  999.0
  36   17:50   34.5    71    5.8    43      6.9    884     0.00       0    35.3   999.0    0.0  999.0
  36   18:00   33.9    73    5.4    39      6.6    884     0.00       0    35.3   999.0    0.0  999.0
  36   18:10   33.8    75    5.3    39      6.4    884     0.00       0    35.3   999.0    0.0  999.0
  36   18:20   33.2    78    6.0    45      7.7    884     0.03       0    96.8     0.0    7.7  999.0
  36   18:30  999.0   999  999.0   999    999.0    999    999.00     999   999.0   999.0  999.0  999.0
  36   18:40  999.0   999  999.0   999    999.0    999    999.00     999   999.0   999.0  999.0  999.0
  36   18:50   33.2    79    6.5    35      8.1    884     0.00       0    35.1   999.0    0.0  999.0
  36   19:00   32.6    80    6.5    54      7.5    884     0.00       0    35.1   999.0    0.0  999.0
  36   19:10   32.1    81    5.6    57      6.4    884     0.00       0    35.0    36.0  1750.0  999.0
  36   19:20  999.0   999  999.0   999    999.0    999    999.00     999   999.0   999.0  999.0  999.0
  36   19:30  999.0   999  999.0   999    999.0    999    999.00     999   999.0   999.0  999.0  999.0
  36   19:40  999.0   999  999.0   999    999.0    999    999.00     999   999.0   999.0  999.0  999.0
  36   19:50   31.4    80    4.4    50      6.6    884     0.00       0    34.9    36.0  1850.0  999.0
  36   20:00  999.0   999  999.0   999    999.0    999    999.00     999   999.0   999.0  999.0  999.0
  36   20:10  999.0   999  999.0   999    999.0    999    999.00     999   999.0   999.0  999.0  999.0
  36   20:20  999.0   999  999.0   999    999.0    999    999.00     999   999.0   999.0  999.0  999.0
  36   20:30  999.0   999  999.0   999    999.0    999    999.00     999   999.0   999.0  999.0  999.0
  36   20:40  999.0   999  999.0   999    999.0    999    999.00     999   999.0   999.0  999.0  999.0
  36   20:50   30.7    83    0.6     2      1.0    884     0.03       0    96.8     0.0    4.4  999.0

Return to Fairview Valley graphs page.


Western Regional Climate Center,wrcc@dri.edu